createdAt,value
2018-09-20T00:00:37.294Z,12.40
2018-09-20T00:01:37.324Z,13.00
2018-09-20T00:02:37.388Z,12.70
2018-09-20T00:03:37.425Z,12.50
2018-09-20T00:04:37.487Z,12.10
2018-09-20T00:05:37.510Z,12.20
2018-09-20T00:06:37.556Z,12.00
2018-09-20T00:07:37.636Z,12.70
2018-09-20T00:08:37.699Z,12.40
2018-09-20T00:09:37.718Z,12.60
2018-09-20T00:10:37.770Z,13.20
2018-09-20T00:11:37.803Z,12.80
2018-09-20T00:12:37.875Z,13.50
2018-09-20T00:13:37.922Z,13.70
2018-09-20T00:14:37.957Z,13.00
2018-09-20T00:15:38.009Z,13.20
2018-09-20T00:16:38.057Z,13.30
2018-09-20T00:17:38.122Z,14.00
2018-09-20T00:18:38.205Z,13.40
2018-09-20T00:19:38.211Z,13.40
2018-09-20T00:20:38.234Z,13.20
2018-09-20T00:21:38.342Z,13.10
2018-09-20T00:22:38.325Z,13.10
2018-09-20T00:23:38.376Z,12.50
2018-09-20T00:24:38.418Z,12.70
2018-09-20T00:25:38.482Z,12.00
2018-09-20T00:26:38.531Z,12.70
2018-09-20T00:27:38.601Z,13.30
2018-09-20T00:28:38.625Z,12.20
2018-09-20T00:29:38.695Z,12.60
2018-09-20T00:30:38.747Z,12.90
2018-09-20T00:31:38.776Z,13.00
2018-09-20T00:32:38.817Z,12.40
2018-09-20T00:33:38.885Z,12.70
2018-09-20T00:34:38.921Z,12.40
2018-09-20T00:35:38.964Z,12.40
2018-09-20T00:36:39.052Z,13.20
2018-09-20T00:37:39.105Z,12.40
2018-09-20T00:38:39.093Z,12.70
2018-09-20T00:39:39.162Z,12.50
2018-09-20T00:40:39.244Z,12.80
2018-09-20T00:41:39.358Z,12.60
2018-09-20T00:42:39.301Z,12.60
2018-09-20T00:43:39.346Z,12.60
2018-09-20T00:44:39.413Z,12.40
2018-09-20T00:45:39.455Z,12.90
2018-09-20T00:46:39.501Z,12.80
2018-09-20T00:47:39.652Z,12.90
2018-09-20T00:48:39.603Z,13.00
2018-09-20T00:49:39.638Z,12.80
2018-09-20T00:50:39.703Z,12.30
2018-09-20T00:51:39.746Z,12.20
2018-09-20T00:52:40.056Z,11.90
2018-09-20T00:53:39.835Z,11.90
2018-09-20T00:54:39.904Z,11.30
2018-09-20T00:55:39.910Z,10.40
2018-09-20T00:56:39.973Z,10.10
2018-09-20T00:57:40.039Z,10.20
2018-09-20T00:58:40.175Z,10.90
2018-09-20T00:59:40.133Z,10.90
2018-09-20T01:00:40.149Z,10.00
2018-09-20T01:01:40.251Z,10.30
2018-09-20T01:02:40.283Z,10.00
2018-09-20T01:03:40.556Z,10.10
2018-09-20T01:04:40.376Z,9.80
2018-09-20T01:05:40.451Z,10.10
2018-09-20T01:06:40.465Z,9.70
2018-09-20T01:07:40.507Z,10.20
2018-09-20T01:08:40.672Z,9.30
2018-09-20T01:09:40.611Z,8.90
2018-09-20T01:10:40.663Z,8.90
2018-09-20T01:11:40.699Z,8.50
2018-09-20T01:12:40.748Z,8.50
2018-09-20T01:13:40.835Z,8.50
2018-09-20T01:14:40.850Z,8.50
2018-09-20T01:15:40.894Z,8.70
2018-09-20T01:16:40.949Z,8.90
2018-09-20T01:17:41.025Z,8.30
2018-09-20T01:18:41.045Z,8.40
2018-09-20T01:19:41.331Z,8.60
2018-09-20T01:20:41.117Z,8.60
2018-09-20T01:21:41.179Z,7.90
2018-09-20T01:22:41.222Z,8.60
2018-09-20T01:23:41.280Z,8.10
2018-09-20T01:24:41.417Z,8.00
2018-09-20T01:25:41.374Z,8.00
2018-09-20T01:26:41.434Z,8.00
2018-09-20T01:27:41.461Z,8.40
2018-09-20T01:28:41.501Z,8.50
2018-09-20T01:29:41.573Z,8.20
2018-09-20T01:30:41.709Z,7.90
2018-09-20T01:31:41.661Z,8.80
2018-09-20T01:32:41.741Z,8.20
2018-09-20T01:33:41.753Z,8.50
2018-09-20T01:34:41.856Z,8.10
2018-09-20T01:35:41.863Z,7.90
2018-09-20T01:36:41.987Z,8.10
2018-09-20T01:37:41.988Z,8.50
2018-09-20T01:38:41.995Z,8.30
2018-09-20T01:39:42.055Z,8.20
2018-09-20T01:40:42.084Z,8.40
2018-09-20T01:41:42.137Z,8.00
2018-09-20T01:42:42.342Z,8.70
2018-09-20T01:43:42.264Z,8.60
2018-09-20T01:44:42.273Z,8.50
2018-09-20T01:45:42.335Z,8.10
2018-09-20T01:46:42.361Z,8.20
2018-09-20T01:47:42.526Z,8.10
2018-09-20T01:48:42.465Z,8.30
2018-09-20T01:49:42.522Z,8.40
2018-09-20T01:50:42.561Z,8.20
2018-09-20T01:51:42.636Z,8.50
2018-09-20T01:52:42.965Z,8.40
2018-09-20T01:53:42.686Z,8.10
2018-09-20T01:54:42.749Z,8.50
2018-09-20T01:55:42.805Z,8.30
2018-09-20T01:56:42.830Z,8.20
2018-09-20T01:57:43.000Z,8.70
2018-09-20T01:58:42.950Z,8.70
2018-09-20T01:59:42.990Z,8.80
2018-09-20T02:00:43.036Z,8.90
2018-09-20T02:01:43.116Z,8.70
2018-09-20T02:02:43.444Z,8.80
2018-09-20T02:03:43.225Z,8.50
2018-09-20T02:04:43.267Z,8.90
2018-09-20T02:05:43.277Z,9.30
2018-09-20T02:06:43.335Z,8.90
2018-09-20T02:07:43.493Z,9.40
2018-09-20T02:08:43.430Z,9.10
2018-09-20T02:09:43.486Z,8.80
2018-09-20T02:10:43.532Z,8.60
2018-09-20T02:11:43.590Z,8.50
2018-09-20T02:12:43.628Z,8.60
2018-09-20T02:13:43.960Z,8.50
2018-09-20T02:14:43.706Z,8.70
2018-09-20T02:15:43.758Z,8.50
2018-09-20T02:16:43.824Z,8.40
2018-09-20T02:17:43.845Z,8.80
2018-09-20T02:18:44.003Z,9.20
2018-09-20T02:19:43.971Z,9.00
2018-09-20T02:20:44.008Z,8.70
2018-09-20T02:21:44.061Z,9.70
2018-09-20T02:22:44.144Z,8.60
2018-09-20T02:23:44.482Z,9.00
2018-09-20T02:24:44.197Z,8.90
2018-09-20T02:25:44.242Z,9.10
2018-09-20T02:26:44.295Z,8.90
2018-09-20T02:27:44.337Z,9.00
2018-09-20T02:28:44.501Z,9.00
2018-09-20T02:29:44.447Z,9.00
2018-09-20T02:30:44.485Z,8.60
2018-09-20T02:31:44.538Z,8.50
2018-09-20T02:32:44.593Z,9.10
2018-09-20T02:33:44.736Z,8.50
2018-09-20T02:34:44.664Z,8.80
2018-09-20T02:35:44.788Z,9.30
2018-09-20T02:36:44.777Z,8.80
2018-09-20T02:37:44.848Z,9.10
2018-09-20T02:38:44.876Z,8.80
2018-09-20T02:39:45.027Z,8.30
2018-09-20T02:40:44.966Z,8.60
2018-09-20T02:41:45.015Z,8.70
2018-09-20T02:42:45.060Z,8.70
2018-09-20T02:43:45.101Z,9.00
2018-09-20T02:44:45.280Z,9.40
2018-09-20T02:45:45.192Z,9.10
2018-09-20T02:46:45.280Z,9.40
2018-09-20T02:47:45.296Z,9.40
2018-09-20T02:48:45.368Z,9.20
2018-09-20T02:49:45.413Z,9.30
2018-09-20T02:50:45.700Z,9.30
2018-09-20T02:51:45.509Z,9.80
2018-09-20T02:52:45.544Z,9.40
2018-09-20T02:53:45.610Z,8.50
2018-09-20T02:54:45.631Z,8.70
2018-09-20T02:55:45.783Z,9.00
2018-09-20T02:56:45.734Z,9.20
2018-09-20T02:57:45.783Z,9.00
2018-09-20T02:58:45.874Z,9.10
2018-09-20T02:59:45.897Z,8.90
2018-09-20T03:00:45.918Z,9.70
2018-09-20T03:01:45.977Z,9.40
2018-09-20T03:02:46.009Z,9.40
2018-09-20T03:03:46.069Z,9.50
2018-09-20T03:04:46.165Z,9.70
2018-09-20T03:05:46.166Z,9.50
2018-09-20T03:06:46.215Z,9.00
2018-09-20T03:07:46.261Z,8.70
2018-09-20T03:08:46.318Z,8.80
2018-09-20T03:09:46.385Z,8.80
2018-09-20T03:10:46.405Z,8.90
2018-09-20T03:11:46.556Z,11.00
2018-09-20T03:12:46.506Z,10.80
2018-09-20T03:13:46.557Z,9.40
2018-09-20T03:14:46.598Z,9.40
2018-09-20T03:15:46.633Z,8.50
2018-09-20T03:16:46.687Z,7.50
2018-09-20T03:17:46.891Z,6.40
2018-09-20T03:18:46.791Z,5.00
2018-09-20T03:19:46.834Z,4.30
2018-09-20T03:20:46.898Z,3.30
2018-09-20T03:21:46.940Z,3.10
2018-09-20T03:22:46.995Z,3.70
2018-09-20T03:23:47.317Z,4.10
2018-09-20T03:24:47.061Z,3.60
2018-09-20T03:25:47.118Z,3.80
2018-09-20T03:26:47.183Z,3.70
2018-09-20T03:27:47.258Z,4.50
2018-09-20T03:28:47.261Z,4.00
2018-09-20T03:29:57.041Z,3.70
2018-09-20T03:30:56.973Z,3.20
2018-09-20T03:31:57.018Z,3.70
2018-09-20T03:32:57.066Z,3.50
2018-09-20T03:33:57.117Z,4.10
2018-09-20T03:34:57.167Z,3.40
2018-09-20T03:35:57.311Z,3.50
2018-09-20T03:36:57.247Z,3.40
2018-09-20T03:37:57.284Z,2.60
2018-09-20T03:38:57.386Z,2.60
2018-09-20T03:39:57.413Z,2.30
2018-09-20T03:40:57.700Z,2.40
2018-09-20T03:41:57.445Z,2.70
2018-09-20T03:42:57.519Z,2.40
2018-09-20T03:43:57.542Z,2.30
2018-09-20T03:44:57.604Z,2.30
2018-09-20T03:45:57.739Z,2.50
2018-09-20T03:46:57.680Z,2.10
2018-09-20T03:47:57.724Z,2.40
2018-09-20T03:48:57.759Z,2.30
2018-09-20T03:49:57.812Z,2.80
2018-09-20T03:50:58.098Z,2.60
2018-09-20T03:51:57.886Z,2.80
2018-09-20T03:52:57.926Z,2.80
2018-09-20T03:53:58.031Z,2.70
2018-09-20T03:54:58.028Z,2.60
2018-09-20T03:55:58.176Z,2.90
2018-09-20T03:56:58.091Z,2.70
2018-09-20T03:57:58.185Z,2.90
2018-09-20T03:58:58.202Z,3.00
2018-09-20T03:59:58.232Z,2.90
2018-09-20T04:00:58.583Z,2.90
2018-09-20T04:01:58.364Z,2.90
2018-09-20T04:02:58.377Z,3.20
2018-09-20T04:03:58.424Z,3.10
2018-09-20T04:04:58.470Z,2.80
2018-09-20T04:05:58.506Z,2.70
2018-09-20T04:06:58.797Z,2.80
2018-09-20T04:07:58.581Z,2.80
2018-09-20T04:08:58.628Z,2.70
2018-09-20T04:09:58.663Z,5.20
2018-09-20T04:10:58.709Z,3.60
2018-09-20T04:11:58.859Z,3.70
2018-09-20T04:12:58.844Z,3.80
2018-09-20T04:13:58.844Z,3.40
2018-09-20T04:14:58.881Z,3.50
2018-09-20T04:15:58.921Z,3.90
2018-09-20T04:16:58.985Z,3.80
2018-09-20T04:17:59.137Z,3.40
2018-09-20T04:18:59.045Z,3.10
2018-09-20T04:19:59.115Z,3.20
2018-09-20T04:20:59.153Z,3.00
2018-09-20T04:21:59.193Z,3.30
2018-09-20T04:22:59.340Z,3.10
2018-09-20T04:23:59.263Z,3.20
2018-09-20T04:24:59.302Z,3.60
2018-09-20T04:25:59.348Z,3.50
2018-09-20T04:26:59.392Z,3.80
2018-09-20T04:27:59.758Z,3.60
2018-09-20T04:28:59.501Z,3.70
2018-09-20T04:29:59.547Z,3.40
2018-09-20T04:30:59.592Z,3.10
2018-09-20T04:31:59.644Z,3.10
2018-09-20T04:32:59.786Z,2.90
2018-09-20T04:33:59.723Z,3.20
2018-09-20T04:34:59.756Z,2.90
2018-09-20T04:35:59.815Z,2.90
2018-09-20T04:36:59.837Z,2.90
2018-09-20T04:38:00.135Z,2.80
2018-09-20T04:38:59.925Z,3.10
2018-09-20T04:40:00.000Z,2.90
2018-09-20T04:41:00.015Z,3.20
2018-09-20T04:42:00.083Z,3.10
2018-09-20T04:43:00.211Z,3.10
2018-09-20T04:44:00.148Z,3.30
2018-09-20T04:45:00.193Z,3.40
2018-09-20T04:46:00.241Z,3.50
2018-09-20T04:47:00.296Z,3.30
2018-09-20T04:48:00.588Z,3.40
2018-09-20T04:49:00.354Z,3.20
2018-09-20T04:50:00.406Z,3.10
2018-09-20T04:51:00.441Z,3.00
2018-09-20T04:52:00.521Z,3.00
2018-09-20T04:53:00.536Z,3.10
2018-09-20T04:54:00.888Z,3.30
2018-09-20T04:55:00.641Z,3.20
2018-09-20T04:56:00.691Z,3.00
2018-09-20T04:57:00.721Z,3.30
2018-09-20T04:58:00.787Z,3.30
2018-09-20T04:59:00.919Z,3.30
2018-09-20T05:00:00.957Z,3.20
2018-09-20T05:01:00.908Z,3.00
2018-09-20T05:02:00.956Z,3.10
2018-09-20T05:03:00.977Z,3.20
2018-09-20T05:04:01.291Z,3.70
2018-09-20T05:05:01.069Z,3.50
2018-09-20T05:06:01.124Z,3.60
2018-09-20T05:07:01.182Z,3.90
2018-09-20T05:08:01.219Z,3.50
2018-09-20T05:09:01.494Z,3.70
2018-09-20T05:10:01.279Z,3.50
2018-09-20T05:11:01.345Z,3.50
2018-09-20T05:12:01.392Z,3.90
2018-09-20T05:13:01.443Z,3.80
2018-09-20T05:14:01.496Z,4.00
2018-09-20T05:15:01.528Z,3.50
2018-09-20T05:16:01.579Z,3.40
2018-09-20T05:17:01.613Z,3.40
2018-09-20T05:18:01.651Z,3.70
2018-09-20T05:19:01.936Z,3.80
2018-09-20T05:20:01.735Z,3.80
2018-09-20T05:21:01.785Z,3.80
2018-09-20T05:22:01.838Z,3.90
2018-09-20T05:23:01.881Z,3.60
2018-09-20T05:24:02.041Z,3.50
2018-09-20T05:25:01.980Z,3.70
2018-09-20T05:26:02.056Z,4.00
2018-09-20T05:27:02.034Z,4.10
2018-09-20T05:28:02.088Z,4.20
2018-09-20T05:29:02.149Z,3.50
2018-09-20T05:30:02.425Z,3.50
2018-09-20T05:31:02.232Z,3.70
2018-09-20T05:32:02.290Z,3.70
2018-09-20T05:33:02.324Z,3.90
2018-09-20T05:34:02.376Z,3.50
2018-09-20T05:35:02.421Z,4.00
2018-09-20T05:36:02.709Z,3.90
2018-09-20T05:37:02.483Z,4.00
2018-09-20T05:38:02.543Z,4.00
2018-09-20T05:39:02.575Z,4.20
2018-09-20T05:40:02.618Z,4.10
2018-09-20T05:41:02.679Z,4.30
2018-09-20T05:42:02.706Z,4.10
2018-09-20T05:43:02.762Z,4.40
2018-09-20T05:44:02.806Z,4.10
2018-09-20T05:45:02.846Z,4.20
2018-09-20T05:46:02.903Z,3.80
2018-09-20T05:47:02.922Z,4.10
2018-09-20T05:48:02.985Z,4.30
2018-09-20T05:49:03.041Z,4.10
2018-09-20T05:50:03.065Z,4.30
2018-09-20T05:51:03.100Z,4.20
2018-09-20T05:52:03.154Z,4.20
2018-09-20T05:53:03.196Z,4.30
2018-09-20T05:54:03.330Z,4.40
2018-09-20T05:55:03.289Z,4.50
2018-09-20T05:56:03.348Z,4.60
2018-09-20T05:57:03.365Z,4.40
2018-09-20T05:58:03.429Z,4.60
2018-09-20T05:59:03.470Z,4.50
2018-09-20T06:00:03.512Z,4.30
2018-09-20T06:01:03.551Z,4.40
2018-09-20T06:02:03.903Z,4.60
2018-09-20T06:03:03.658Z,4.50
2018-09-20T06:04:03.732Z,4.30
2018-09-20T06:05:03.729Z,4.40
2018-09-20T06:06:03.770Z,4.30
2018-09-20T06:07:03.807Z,4.60
2018-09-20T06:08:03.865Z,4.40
2018-09-20T06:09:03.920Z,4.70
2018-09-20T06:10:03.948Z,4.80
2018-09-20T06:11:04.019Z,4.50
2018-09-20T06:12:04.041Z,4.50
2018-09-20T06:13:04.089Z,4.90
2018-09-20T06:14:04.206Z,4.40
2018-09-20T06:15:04.200Z,4.80
2018-09-20T06:16:04.231Z,4.40
2018-09-20T06:17:04.241Z,4.50
2018-09-20T06:18:04.284Z,4.30
2018-09-20T06:19:04.374Z,4.20
2018-09-20T06:20:04.636Z,4.30
2018-09-20T06:21:04.439Z,4.30
2018-09-20T06:22:04.488Z,4.20
2018-09-20T06:23:04.521Z,4.50
2018-09-20T06:24:04.533Z,4.40
2018-09-20T06:25:04.687Z,4.30
2018-09-20T06:26:04.642Z,4.60
2018-09-20T06:27:04.741Z,4.50
2018-09-20T06:28:04.708Z,4.70
2018-09-20T06:29:04.781Z,4.80
2018-09-20T06:30:04.825Z,4.90
2018-09-20T06:31:04.856Z,5.20
2018-09-20T06:32:04.902Z,4.80
2018-09-20T06:33:04.982Z,4.80
2018-09-20T06:34:05.000Z,5.20
2018-09-20T06:35:05.043Z,5.20
2018-09-20T06:36:05.071Z,4.90
2018-09-20T06:37:05.115Z,5.30
2018-09-20T06:38:05.176Z,5.60
2018-09-20T06:39:05.212Z,5.30
2018-09-20T06:40:05.263Z,5.20
2018-09-20T06:41:05.348Z,5.10
2018-09-20T06:42:05.354Z,5.10
2018-09-20T06:43:05.441Z,5.50
2018-09-20T06:44:05.448Z,5.60
2018-09-20T06:45:05.479Z,5.30
2018-09-20T06:46:05.505Z,5.20
2018-09-20T06:47:05.581Z,5.30
2018-09-20T06:48:05.602Z,5.40
2018-09-20T06:49:05.628Z,4.70
2018-09-20T06:50:05.681Z,5.00
2018-09-20T06:51:06.116Z,5.00
2018-09-20T06:52:05.790Z,5.10
2018-09-20T06:53:05.824Z,5.20
2018-09-20T06:54:05.911Z,5.20
2018-09-20T06:55:05.910Z,5.00
2018-09-20T06:56:06.208Z,5.20
2018-09-20T06:57:06.007Z,4.90
2018-09-20T06:58:06.043Z,5.30
2018-09-20T06:59:06.100Z,5.30
2018-09-20T07:00:06.148Z,5.80
2018-09-20T07:01:06.284Z,5.40
2018-09-20T07:02:06.224Z,6.00
2018-09-20T07:03:06.329Z,5.70
2018-09-20T07:04:06.312Z,5.00
2018-09-20T07:05:06.374Z,5.20
2018-09-20T07:06:06.962Z,4.90
2018-09-20T07:07:06.437Z,4.70
2018-09-20T07:08:06.493Z,4.60
2018-09-20T07:09:06.551Z,4.90
2018-09-20T07:10:06.594Z,4.70
2018-09-20T07:11:06.626Z,4.90
2018-09-20T07:12:06.781Z,4.60
2018-09-20T07:13:06.764Z,4.70
2018-09-20T07:14:06.738Z,4.70
2018-09-20T07:15:06.801Z,5.00
2018-09-20T07:16:06.877Z,4.80
2018-09-20T07:17:07.146Z,5.20
2018-09-20T07:18:06.940Z,5.20
2018-09-20T07:19:07.006Z,4.90
2018-09-20T07:20:07.037Z,4.80
2018-09-20T07:21:07.064Z,4.80
2018-09-20T07:22:07.210Z,4.60
2018-09-20T07:23:07.173Z,5.20
2018-09-20T07:24:07.207Z,4.90
2018-09-20T07:25:07.292Z,4.90
2018-09-20T07:26:07.305Z,5.20
2018-09-20T07:27:07.562Z,5.30
2018-09-20T07:28:07.386Z,5.00
2018-09-20T07:29:07.437Z,5.60
2018-09-20T07:30:07.468Z,5.20
2018-09-20T07:31:07.486Z,5.60
2018-09-20T07:32:07.869Z,5.90
2018-09-20T07:33:07.614Z,5.90
2018-09-20T07:34:07.697Z,5.90
2018-09-20T07:35:07.694Z,5.90
2018-09-20T07:36:07.778Z,5.70
2018-09-20T07:37:07.777Z,5.60
2018-09-20T07:38:08.087Z,5.50
2018-09-20T07:39:07.878Z,5.50
2018-09-20T07:40:07.905Z,5.80
2018-09-20T07:41:08.004Z,5.80
2018-09-20T07:42:08.017Z,5.60
2018-09-20T07:43:08.052Z,5.60
2018-09-20T07:44:08.084Z,5.40
2018-09-20T07:45:08.122Z,5.70
2018-09-20T07:46:08.175Z,5.70
2018-09-20T07:47:08.243Z,5.80
2018-09-20T07:48:08.280Z,6.10
2018-09-20T07:49:08.578Z,6.30
2018-09-20T07:50:08.413Z,6.00
2018-09-20T07:51:08.422Z,5.50
2018-09-20T07:52:08.472Z,6.00
2018-09-20T07:53:08.490Z,5.70
2018-09-20T07:54:08.639Z,6.50
2018-09-20T07:55:08.598Z,5.80
2018-09-20T07:56:08.636Z,6.20
2018-09-20T07:57:08.665Z,6.10
2018-09-20T07:58:08.725Z,6.50
2018-09-20T07:59:09.010Z,6.40
2018-09-20T08:00:08.813Z,6.30
2018-09-20T08:01:08.844Z,6.90
2018-09-20T08:02:08.883Z,8.50
2018-09-20T08:03:08.965Z,7.80
2018-09-20T08:04:09.271Z,7.30
2018-09-20T08:05:09.035Z,7.90
2018-09-20T08:06:09.093Z,8.20
2018-09-20T08:07:09.215Z,8.80
2018-09-20T08:08:09.200Z,9.60
2018-09-20T08:09:09.225Z,9.70
2018-09-20T08:10:09.615Z,9.10
2018-09-20T08:11:09.336Z,8.90
2018-09-20T08:12:09.409Z,7.90
2018-09-20T08:13:09.394Z,8.30
2018-09-20T08:14:09.456Z,7.80
2018-09-20T08:15:09.587Z,6.40
2018-09-20T08:16:09.547Z,5.90
2018-09-20T08:17:09.562Z,6.10
2018-09-20T08:18:09.624Z,5.80
2018-09-20T08:19:09.660Z,6.00
2018-09-20T08:20:09.727Z,5.70
2018-09-20T08:21:09.837Z,5.80
2018-09-20T08:22:09.787Z,5.90
2018-09-20T08:23:09.830Z,5.90
2018-09-20T08:24:09.879Z,6.10
2018-09-20T08:25:09.925Z,5.90
2018-09-20T08:26:10.080Z,5.50
2018-09-20T08:27:10.022Z,6.20
2018-09-20T08:28:10.095Z,5.60
2018-09-20T08:29:10.107Z,5.80
2018-09-20T08:30:10.162Z,5.60
2018-09-20T08:31:10.239Z,5.50
2018-09-20T08:32:10.478Z,6.20
2018-09-20T08:33:10.284Z,5.60
2018-09-20T08:34:10.319Z,5.90
2018-09-20T08:35:10.369Z,5.50
2018-09-20T08:36:10.427Z,5.70
2018-09-20T08:37:10.767Z,5.70
2018-09-20T08:38:10.510Z,5.70
2018-09-20T08:39:10.543Z,5.90
2018-09-20T08:40:10.586Z,5.90
2018-09-20T08:41:10.638Z,5.70
2018-09-20T08:42:10.845Z,6.00
2018-09-20T08:43:10.731Z,5.90
2018-09-20T08:44:10.828Z,5.60
2018-09-20T08:45:10.824Z,5.40
2018-09-20T08:46:10.877Z,5.50
2018-09-20T08:47:11.216Z,5.30
2018-09-20T08:48:10.955Z,5.30
2018-09-20T08:49:11.006Z,5.50
2018-09-20T08:50:11.048Z,5.40
2018-09-20T08:51:11.147Z,4.90
2018-09-20T08:52:11.130Z,5.10
2018-09-20T08:53:11.224Z,5.50
2018-09-20T08:54:11.243Z,5.60
2018-09-20T08:55:11.267Z,5.40
2018-09-20T08:56:11.310Z,6.30
2018-09-20T08:57:11.435Z,5.40
2018-09-20T08:58:11.659Z,5.00
2018-09-20T08:59:11.507Z,5.10
2018-09-20T09:00:11.480Z,5.00
2018-09-20T09:01:11.511Z,4.60
2018-09-20T09:02:11.576Z,4.80
2018-09-20T09:03:11.704Z,4.60
2018-09-20T09:04:11.675Z,4.40
2018-09-20T09:05:11.690Z,4.70
2018-09-20T09:06:11.738Z,4.70
2018-09-20T09:07:11.784Z,4.70
2018-09-20T09:08:12.110Z,4.70
2018-09-20T09:09:11.895Z,4.40
2018-09-20T09:10:11.962Z,4.60
2018-09-20T09:11:11.978Z,4.30
2018-09-20T09:12:12.058Z,4.60
2018-09-20T09:13:12.109Z,4.30
2018-09-20T09:14:12.119Z,4.30
2018-09-20T09:15:12.151Z,4.20
2018-09-20T09:16:12.199Z,4.10
2018-09-20T09:17:12.218Z,3.80
2018-09-20T09:18:12.262Z,3.60
2018-09-20T09:19:12.307Z,3.70
2018-09-20T09:20:12.366Z,3.70
2018-09-20T09:21:12.393Z,3.40
2018-09-20T09:22:12.455Z,3.50
2018-09-20T09:23:12.495Z,3.30
2018-09-20T09:24:12.541Z,3.00
2018-09-20T09:25:12.577Z,3.00
2018-09-20T09:26:12.632Z,2.90
2018-09-20T09:27:12.658Z,3.30
2018-09-20T09:28:12.704Z,2.90
2018-09-20T09:29:12.757Z,3.00
2018-09-20T09:30:12.841Z,2.90
2018-09-20T09:31:12.875Z,2.70
2018-09-20T09:32:12.895Z,2.50
2018-09-20T09:33:12.921Z,2.70
2018-09-20T09:34:13.283Z,2.70
2018-09-20T09:35:13.029Z,2.80
2018-09-20T09:36:13.057Z,2.80
2018-09-20T09:37:13.098Z,3.00
2018-09-20T09:38:13.170Z,2.70
2018-09-20T09:39:13.305Z,3.00
2018-09-20T09:40:13.245Z,3.00
2018-09-20T09:41:13.284Z,3.00
2018-09-20T09:42:13.371Z,2.70
2018-09-20T09:43:13.366Z,2.80
2018-09-20T09:44:13.421Z,3.20
2018-09-20T09:45:13.722Z,2.80
2018-09-20T09:46:13.511Z,2.50
2018-09-20T09:47:13.540Z,2.50
2018-09-20T09:48:13.633Z,2.60
2018-09-20T09:49:13.612Z,2.60
2018-09-20T09:50:13.960Z,2.40
2018-09-20T09:51:13.703Z,2.50
2018-09-20T09:52:13.795Z,2.60
2018-09-20T09:53:13.810Z,2.30
2018-09-20T09:54:13.858Z,2.70
2018-09-20T09:55:13.907Z,2.60
2018-09-20T09:56:13.958Z,2.60
2018-09-20T09:57:13.988Z,2.60
2018-09-20T09:58:14.036Z,2.50
2018-09-20T09:59:14.112Z,2.50
2018-09-20T10:00:14.123Z,2.60
2018-09-20T10:01:14.195Z,2.60
2018-09-20T10:02:14.199Z,2.30
2018-09-20T10:03:14.253Z,2.70
2018-09-20T10:04:14.341Z,2.30
2018-09-20T10:05:14.338Z,2.20
2018-09-20T10:06:14.484Z,2.80
2018-09-20T10:07:14.483Z,2.30
2018-09-20T10:08:14.481Z,2.30
2018-09-20T10:09:14.506Z,2.40
2018-09-20T10:10:14.566Z,2.40
2018-09-20T10:11:14.705Z,2.30
2018-09-20T10:12:14.640Z,2.60
2018-09-20T10:13:14.763Z,2.80
2018-09-20T10:14:14.733Z,2.90
2018-09-20T10:15:14.774Z,2.70
2018-09-20T10:16:14.930Z,2.50
2018-09-20T10:17:14.872Z,2.20
2018-09-20T10:18:14.909Z,2.60
2018-09-20T10:19:14.942Z,2.50
2018-09-20T10:20:14.980Z,2.40
2018-09-20T10:21:15.087Z,2.40
2018-09-20T10:22:15.183Z,2.40
2018-09-20T10:23:15.114Z,2.50
2018-09-20T10:24:15.188Z,2.40
2018-09-20T10:25:15.222Z,2.90
2018-09-20T10:26:15.262Z,2.50
2018-09-20T10:27:15.310Z,2.60
2018-09-20T10:28:15.362Z,2.70
2018-09-20T10:29:15.425Z,2.70
2018-09-20T10:30:15.453Z,3.10
2018-09-20T10:31:15.498Z,2.60
2018-09-20T10:32:15.533Z,2.70
2018-09-20T10:33:15.663Z,2.80
2018-09-20T10:34:15.605Z,2.90
2018-09-20T10:35:15.641Z,3.00
2018-09-20T10:36:15.710Z,3.20
2018-09-20T10:37:15.776Z,3.10
2018-09-20T10:38:15.788Z,2.70
2018-09-20T10:39:15.846Z,2.80
2018-09-20T10:40:15.884Z,2.90
2018-09-20T10:41:15.932Z,2.90
2018-09-20T10:42:15.987Z,2.70
2018-09-20T10:43:16.010Z,2.80
2018-09-20T10:44:16.065Z,2.80
2018-09-20T10:45:16.084Z,2.80
2018-09-20T10:46:16.170Z,2.90
2018-09-20T10:47:16.233Z,2.90
2018-09-20T10:48:16.253Z,3.10
2018-09-20T10:49:16.371Z,3.10
2018-09-20T10:50:16.318Z,2.90
2018-09-20T10:51:16.351Z,3.00
2018-09-20T10:52:16.457Z,2.90
2018-09-20T10:53:16.460Z,3.10
2018-09-20T10:54:16.502Z,2.80
2018-09-20T10:55:16.529Z,3.10
2018-09-20T10:56:16.610Z,2.80
2018-09-20T10:57:16.651Z,3.00
2018-09-20T10:58:16.675Z,3.10
2018-09-20T10:59:16.764Z,3.20
2018-09-20T11:00:16.782Z,3.20
2018-09-20T11:01:16.810Z,2.90
2018-09-20T11:02:16.861Z,3.00
2018-09-20T11:03:16.955Z,3.20
2018-09-20T11:04:16.962Z,3.00
2018-09-20T11:05:17.241Z,2.80
2018-09-20T11:06:17.029Z,2.90
2018-09-20T11:07:17.075Z,3.20
2018-09-20T11:08:17.122Z,3.10
2018-09-20T11:09:17.186Z,3.20
2018-09-20T11:10:17.329Z,3.20
2018-09-20T11:11:17.275Z,3.40
2018-09-20T11:12:17.354Z,3.20
2018-09-20T11:13:17.352Z,3.40
2018-09-20T11:14:17.403Z,3.20
2018-09-20T11:15:17.459Z,3.00
2018-09-20T11:16:17.491Z,3.40
2018-09-20T11:17:17.528Z,3.20
2018-09-20T11:18:17.612Z,3.40
2018-09-20T11:19:17.606Z,3.20
2018-09-20T11:20:17.677Z,3.00
2018-09-20T11:21:17.802Z,3.10
2018-09-20T11:22:17.769Z,3.30
2018-09-20T11:23:17.800Z,3.50
2018-09-20T11:24:17.831Z,3.30
2018-09-20T11:25:17.894Z,3.20
2018-09-20T11:26:18.215Z,3.30
2018-09-20T11:27:18.000Z,3.20
2018-09-20T11:28:18.033Z,3.50
2018-09-20T11:29:18.040Z,3.40
2018-09-20T11:30:18.120Z,3.50
2018-09-20T11:31:18.233Z,3.20
2018-09-20T11:32:18.194Z,3.30
2018-09-20T11:33:18.270Z,2.90
2018-09-20T11:34:18.292Z,2.90
2018-09-20T11:35:18.330Z,3.00
2018-09-20T11:36:18.405Z,3.30
2018-09-20T11:37:18.420Z,3.10
2018-09-20T11:38:18.466Z,3.10
2018-09-20T11:39:18.514Z,3.10
2018-09-20T11:40:18.586Z,3.10
2018-09-20T11:41:18.593Z,2.70
2018-09-20T11:42:18.633Z,2.90
2018-09-20T11:43:18.698Z,2.80
2018-09-20T11:44:18.719Z,2.70
2018-09-20T11:45:18.821Z,2.90
2018-09-20T11:46:18.807Z,3.10
2018-09-20T11:47:18.952Z,3.20
2018-09-20T11:48:18.907Z,2.90
2018-09-20T11:49:18.959Z,3.30
2018-09-20T11:50:18.993Z,2.60
2018-09-20T11:51:19.037Z,2.50
2018-09-20T11:52:19.202Z,3.00
2018-09-20T11:53:19.137Z,2.80
2018-09-20T11:54:19.171Z,3.20
2018-09-20T11:55:19.234Z,3.00
2018-09-20T11:56:19.276Z,2.60
2018-09-20T11:57:19.301Z,2.90
2018-09-20T11:58:19.457Z,3.10
2018-09-20T11:59:19.437Z,3.10
2018-09-20T12:00:19.428Z,3.20
2018-09-20T12:01:19.506Z,2.90
2018-09-20T12:02:19.553Z,2.70
2018-09-20T12:03:19.574Z,2.50
2018-09-20T12:04:19.717Z,2.80
2018-09-20T12:05:19.664Z,2.60
2018-09-20T12:06:19.726Z,2.80
2018-09-20T12:07:19.761Z,2.40
2018-09-20T12:08:19.859Z,2.70
2018-09-20T12:09:19.838Z,3.00
2018-09-20T12:10:19.979Z,2.50
2018-09-20T12:11:19.925Z,3.80
2018-09-20T12:12:19.976Z,2.90
2018-09-20T12:13:20.016Z,2.70
2018-09-20T12:14:20.062Z,2.40
2018-09-20T12:15:20.123Z,2.80
2018-09-20T12:16:20.271Z,2.80
2018-09-20T12:17:20.216Z,3.00
2018-09-20T12:18:20.266Z,2.70
2018-09-20T12:19:20.277Z,2.70
2018-09-20T12:20:20.344Z,2.70
2018-09-20T12:21:20.368Z,3.00
2018-09-20T12:22:20.534Z,2.90
2018-09-20T12:23:20.476Z,2.80
2018-09-20T12:24:20.522Z,2.40
2018-09-20T12:25:20.537Z,2.90
2018-09-20T12:26:20.641Z,2.60
2018-09-20T12:27:20.626Z,2.80
2018-09-20T12:28:20.795Z,2.70
2018-09-20T12:29:20.724Z,3.00
2018-09-20T12:30:20.766Z,2.80
2018-09-20T12:31:20.832Z,2.70
2018-09-20T12:32:20.898Z,2.70
2018-09-20T12:33:20.908Z,2.60
2018-09-20T12:34:21.060Z,2.60
2018-09-20T12:35:21.118Z,2.90
2018-09-20T12:36:21.066Z,2.90
2018-09-20T12:37:21.094Z,2.60
2018-09-20T12:38:21.125Z,2.60
2018-09-20T12:39:21.285Z,2.70
2018-09-20T12:40:21.285Z,2.80
2018-09-20T12:41:21.270Z,2.50
2018-09-20T12:42:21.319Z,2.60
2018-09-20T12:43:21.368Z,2.60
2018-09-20T12:44:21.422Z,2.50
2018-09-20T12:45:21.466Z,2.60
2018-09-20T12:46:21.497Z,2.60
2018-09-20T12:47:21.566Z,2.50
2018-09-20T12:48:21.646Z,2.60
2018-09-20T12:49:21.644Z,2.50
2018-09-20T12:50:21.804Z,2.50
2018-09-20T12:51:21.744Z,2.70
2018-09-20T12:52:21.775Z,2.60
2018-09-20T12:53:21.856Z,2.30
2018-09-20T12:54:21.889Z,2.70
2018-09-20T12:55:21.936Z,2.70
2018-09-20T12:56:22.065Z,2.30
2018-09-20T12:57:22.012Z,2.70
2018-09-20T12:58:22.041Z,2.60
2018-09-20T12:59:22.110Z,2.80
2018-09-20T13:00:22.163Z,2.80
2018-09-20T13:01:22.311Z,2.60
2018-09-20T13:02:22.291Z,2.50
2018-09-20T13:03:22.293Z,2.80
2018-09-20T13:04:22.343Z,2.60
2018-09-20T13:05:22.417Z,2.60
2018-09-20T13:06:22.426Z,2.40
2018-09-20T13:07:22.566Z,2.60
2018-09-20T13:08:22.522Z,2.70
2018-09-20T13:09:22.578Z,2.80
2018-09-20T13:10:22.596Z,2.60
2018-09-20T13:11:22.657Z,2.80
2018-09-20T13:12:22.994Z,2.40
2018-09-20T13:13:22.755Z,2.60
2018-09-20T13:14:22.859Z,2.80
2018-09-20T13:15:22.855Z,2.70
2018-09-20T13:16:22.891Z,2.70
2018-09-20T13:17:23.048Z,2.60